createdAt,value
2017-09-26T00:00:36.614Z,1014.35
2017-09-26T00:01:36.608Z,1014.37
2017-09-26T00:02:38.268Z,1014.37
2017-09-26T00:03:36.602Z,1014.37
2017-09-26T00:04:36.612Z,1014.37
2017-09-26T00:05:38.278Z,1014.34
2017-09-26T00:06:36.592Z,1014.33
2017-09-26T00:07:36.594Z,1014.33
2017-09-26T00:08:36.585Z,1014.31
2017-09-26T00:09:36.581Z,1014.35
2017-09-26T00:10:36.580Z,1014.33
2017-09-26T00:11:36.575Z,1014.35
2017-09-26T00:12:36.572Z,1014.30
2017-09-26T00:13:36.567Z,1014.34
2017-09-26T00:14:36.566Z,1014.34
2017-09-26T00:15:36.561Z,1014.30
2017-09-26T00:16:36.557Z,1014.30
2017-09-26T00:17:36.555Z,1014.33
2017-09-26T00:18:36.549Z,1014.34
2017-09-26T00:19:36.544Z,1014.30
2017-09-26T00:20:36.543Z,1014.36
2017-09-26T00:21:36.539Z,1014.33
2017-09-26T00:22:38.274Z,1014.38
2017-09-26T00:23:38.275Z,1014.39
2017-09-26T00:24:36.530Z,1014.38
2017-09-26T00:25:36.527Z,1014.40
2017-09-26T00:26:36.523Z,1014.43
2017-09-26T00:27:36.519Z,1014.44
2017-09-26T00:28:36.516Z,1014.42
2017-09-26T00:29:36.514Z,1014.44
2017-09-26T00:30:36.510Z,1014.44
2017-09-26T00:31:38.278Z,1014.43
2017-09-26T00:32:36.505Z,1014.43
2017-09-26T00:33:38.279Z,1014.41
2017-09-26T00:34:36.495Z,1014.37
2017-09-26T00:35:36.492Z,1014.40
2017-09-26T00:36:36.488Z,1014.40
2017-09-26T00:37:38.281Z,1014.39
2017-09-26T00:38:36.479Z,1014.39
2017-09-26T00:39:36.474Z,1014.41
2017-09-26T00:40:36.473Z,1014.40
2017-09-26T00:41:38.283Z,1014.39
2017-09-26T00:42:36.467Z,1014.40
2017-09-26T00:43:40.288Z,1014.43
2017-09-26T00:44:36.440Z,1014.41
2017-09-26T00:45:36.437Z,1014.43
2017-09-26T00:46:36.435Z,1014.42
2017-09-26T00:47:36.430Z,1014.45
2017-09-26T00:48:38.266Z,1014.43
2017-09-26T00:49:36.425Z,1014.43
2017-09-26T00:50:38.266Z,1014.44
2017-09-26T00:51:38.267Z,1014.47
2017-09-26T00:52:38.267Z,1014.44
2017-09-26T00:53:36.424Z,1014.46
2017-09-26T00:54:36.407Z,1014.50
2017-09-26T00:55:36.405Z,1014.50
2017-09-26T00:56:36.403Z,1014.48
2017-09-26T00:57:36.397Z,1014.47
2017-09-26T00:58:36.395Z,1014.44
2017-09-26T00:59:36.388Z,1014.43
2017-09-26T01:00:36.385Z,1014.41
2017-09-26T01:01:36.383Z,1014.45
2017-09-26T01:02:38.273Z,1014.44
2017-09-26T01:03:36.378Z,1014.44
2017-09-26T01:04:36.371Z,1014.46
2017-09-26T01:05:38.272Z,1014.41
2017-09-26T01:06:36.364Z,1014.43
2017-09-26T01:07:36.376Z,1014.47
2017-09-26T01:08:36.357Z,1014.46
2017-09-26T01:09:36.355Z,1014.49
2017-09-26T01:10:36.350Z,1014.49
2017-09-26T01:11:36.346Z,1014.48
2017-09-26T01:12:36.345Z,1014.43
2017-09-26T01:13:36.340Z,1014.46
2017-09-26T01:14:36.337Z,1014.43
2017-09-26T01:15:38.276Z,1014.48
2017-09-26T01:16:36.329Z,1014.45
2017-09-26T01:17:36.332Z,1014.44
2017-09-26T01:18:36.328Z,1014.47
2017-09-26T01:19:36.321Z,1014.49
2017-09-26T01:20:36.315Z,1014.44
2017-09-26T01:21:38.279Z,1014.43
2017-09-26T01:22:36.309Z,1014.43
2017-09-26T01:23:36.306Z,1014.42
2017-09-26T01:24:36.306Z,1014.47
2017-09-26T01:25:36.297Z,1014.41
2017-09-26T01:26:38.283Z,1014.43
2017-09-26T01:27:37.781Z,1014.47
2017-09-26T01:28:36.286Z,1014.43
2017-09-26T01:29:37.781Z,1014.47
2017-09-26T01:30:36.279Z,1014.46
2017-09-26T01:31:36.277Z,1014.42
2017-09-26T01:32:36.272Z,1014.46
2017-09-26T01:33:36.269Z,1014.40
2017-09-26T01:34:36.269Z,1014.40
2017-09-26T01:35:36.260Z,1014.43
2017-09-26T01:36:36.258Z,1014.46
2017-09-26T01:37:36.256Z,1014.49
2017-09-26T01:38:36.250Z,1014.45
2017-09-26T01:39:36.249Z,1014.48
2017-09-26T01:40:36.245Z,1014.46
2017-09-26T01:41:36.241Z,1014.48
2017-09-26T01:42:36.241Z,1014.48
2017-09-26T01:43:36.234Z,1014.50
2017-09-26T01:44:36.231Z,1014.48
2017-09-26T01:45:36.229Z,1014.48
2017-09-26T01:46:36.223Z,1014.52
2017-09-26T01:47:36.219Z,1014.48
2017-09-26T01:48:36.215Z,1014.48
2017-09-26T01:49:36.213Z,1014.50
2017-09-26T01:50:37.788Z,1014.47
2017-09-26T01:51:36.209Z,1014.46
2017-09-26T01:52:36.203Z,1014.47
2017-09-26T01:53:37.790Z,1014.47
2017-09-26T01:54:36.204Z,1014.47
2017-09-26T01:55:36.190Z,1014.46
2017-09-26T01:56:36.191Z,1014.44
2017-09-26T01:57:36.187Z,1014.46
2017-09-26T01:58:36.181Z,1014.46
2017-09-26T01:59:37.793Z,1014.51
2017-09-26T02:00:36.177Z,1014.51
2017-09-26T02:01:38.793Z,1014.50
2017-09-26T02:02:36.167Z,1014.52
2017-09-26T02:03:36.163Z,1014.51
2017-09-26T02:04:36.159Z,1014.52
2017-09-26T02:05:36.155Z,1014.53
2017-09-26T02:06:36.153Z,1014.55
2017-09-26T02:07:36.148Z,1014.51
2017-09-26T02:08:36.145Z,1014.56
2017-09-26T02:09:36.142Z,1014.55
2017-09-26T02:10:37.796Z,1014.58
2017-09-26T02:11:37.806Z,1014.59
2017-09-26T02:12:37.797Z,1014.56
2017-09-26T02:13:37.799Z,1014.56
2017-09-26T02:14:36.124Z,1014.57
2017-09-26T02:15:36.120Z,1014.54
2017-09-26T02:16:36.116Z,1014.55
2017-09-26T02:17:36.113Z,1014.57
2017-09-26T02:18:37.108Z,1014.53
2017-09-26T02:19:37.100Z,1014.53
2017-09-26T02:20:36.103Z,1014.55
2017-09-26T02:21:37.800Z,1014.53
2017-09-26T02:22:36.102Z,1014.53
2017-09-26T02:23:36.092Z,1014.55
2017-09-26T02:24:36.091Z,1014.51
2017-09-26T02:25:36.085Z,1014.53
2017-09-26T02:26:36.082Z,1014.48
2017-09-26T02:27:36.081Z,1014.50
2017-09-26T02:28:36.077Z,1014.53
2017-09-26T02:29:37.804Z,1014.53
2017-09-26T02:30:37.803Z,1014.50
2017-09-26T02:31:37.808Z,1014.49
2017-09-26T02:32:36.060Z,1014.53
2017-09-26T02:33:36.059Z,1014.56
2017-09-26T02:34:36.052Z,1014.53
2017-09-26T02:35:36.049Z,1014.54
2017-09-26T02:36:36.047Z,1014.56
2017-09-26T02:37:37.806Z,1014.53
2017-09-26T02:38:37.806Z,1014.57
2017-09-26T02:39:37.806Z,1014.58
2017-09-26T02:40:37.806Z,1014.59
2017-09-26T02:41:37.808Z,1014.55
2017-09-26T02:42:36.028Z,1014.58
2017-09-26T02:43:36.023Z,1014.59
2017-09-26T02:44:36.016Z,1014.56
2017-09-26T02:45:36.014Z,1014.56
2017-09-26T02:46:36.012Z,1014.56
2017-09-26T02:47:36.012Z,1014.52
2017-09-26T02:48:36.004Z,1014.53
2017-09-26T02:49:38.812Z,1014.53
2017-09-26T02:50:36.003Z,1014.54
2017-09-26T02:51:36.995Z,1014.54
2017-09-26T02:52:35.991Z,1014.54
2017-09-26T02:53:37.812Z,1014.57
2017-09-26T02:54:35.982Z,1014.57
2017-09-26T02:55:35.981Z,1014.57
2017-09-26T02:56:37.813Z,1014.54
2017-09-26T02:57:37.815Z,1014.54
2017-09-26T02:58:35.974Z,1014.57
2017-09-26T02:59:37.815Z,1014.56
2017-09-26T03:00:37.814Z,1014.59
2017-09-26T03:01:36.954Z,1014.58
2017-09-26T03:02:35.953Z,1014.58
2017-09-26T03:03:35.950Z,1014.54
2017-09-26T03:04:35.947Z,1014.56
2017-09-26T03:05:36.935Z,1014.55
2017-09-26T03:06:36.938Z,1014.55
2017-09-26T03:07:37.817Z,1014.52
2017-09-26T03:08:35.942Z,1014.52
2017-09-26T03:09:35.928Z,1014.53
2017-09-26T03:10:37.818Z,1014.54
2017-09-26T03:11:35.922Z,1014.56
2017-09-26T03:12:35.919Z,1014.55
2017-09-26T03:13:37.818Z,1014.61
2017-09-26T03:14:35.911Z,1014.61
2017-09-26T03:15:35.928Z,1014.62
2017-09-26T03:16:37.821Z,1014.62
2017-09-26T03:17:37.822Z,1014.65
2017-09-26T03:18:37.820Z,1014.62
2017-09-26T03:19:35.892Z,1014.63
2017-09-26T03:20:37.822Z,1014.61
2017-09-26T03:21:35.885Z,1014.60
2017-09-26T03:22:35.882Z,1014.61
2017-09-26T03:23:35.881Z,1014.64
2017-09-26T03:24:35.875Z,1014.65
2017-09-26T03:25:35.872Z,1014.68
2017-09-26T03:26:35.871Z,1014.67
2017-09-26T03:27:37.824Z,1014.68
2017-09-26T03:28:37.826Z,1014.72
2017-09-26T03:29:35.857Z,1014.70
2017-09-26T03:30:37.825Z,1014.73
2017-09-26T03:31:35.851Z,1014.67
2017-09-26T03:32:35.845Z,1014.71
2017-09-26T03:33:35.842Z,1014.74
2017-09-26T03:34:35.841Z,1014.73
2017-09-26T03:35:37.326Z,1014.74
2017-09-26T03:36:37.327Z,1014.71
2017-09-26T03:37:35.828Z,1014.68
2017-09-26T03:38:37.328Z,1014.71
2017-09-26T03:39:37.331Z,1014.71
2017-09-26T03:40:35.817Z,1014.70
2017-09-26T03:41:35.815Z,1014.70
2017-09-26T03:42:35.811Z,1014.69
2017-09-26T03:43:35.807Z,1014.71
2017-09-26T03:44:35.804Z,1014.73
2017-09-26T03:45:35.805Z,1014.73
2017-09-26T03:46:35.795Z,1014.76
2017-09-26T03:47:37.332Z,1014.73
2017-09-26T03:48:37.331Z,1014.75
2017-09-26T03:49:35.785Z,1014.76
2017-09-26T03:50:37.334Z,1014.74
2017-09-26T03:51:37.332Z,1014.77
2017-09-26T03:52:35.774Z,1014.81
2017-09-26T03:53:37.334Z,1014.76
2017-09-26T03:54:36.765Z,1014.79
2017-09-26T03:55:35.766Z,1014.78
2017-09-26T03:56:37.339Z,1014.75
2017-09-26T03:57:35.757Z,1014.77
2017-09-26T03:58:37.339Z,1014.73
2017-09-26T03:59:35.750Z,1014.76
2017-09-26T04:00:35.746Z,1014.73
2017-09-26T04:01:35.742Z,1014.72
2017-09-26T04:02:35.739Z,1014.72
2017-09-26T04:03:37.336Z,1014.68
2017-09-26T04:04:35.732Z,1014.72
2017-09-26T04:05:37.339Z,1014.71
2017-09-26T04:06:35.726Z,1014.70
2017-09-26T04:07:37.340Z,1014.71
2017-09-26T04:08:37.340Z,1014.74
2017-09-26T04:09:35.714Z,1014.75
2017-09-26T04:10:35.710Z,1014.72
2017-09-26T04:11:35.708Z,1014.73
2017-09-26T04:12:35.703Z,1014.74
2017-09-26T04:13:35.728Z,1014.74
2017-09-26T04:14:35.695Z,1014.77
2017-09-26T04:15:37.341Z,1014.73
2017-09-26T04:16:35.689Z,1014.71
2017-09-26T04:17:35.684Z,1014.72
2017-09-26T04:18:35.681Z,1014.69
2017-09-26T04:19:35.679Z,1014.73
2017-09-26T04:20:35.674Z,1014.72
2017-09-26T04:21:35.671Z,1014.70
2017-09-26T04:22:35.669Z,1014.72
2017-09-26T04:23:35.663Z,1014.75
2017-09-26T04:24:35.661Z,1014.72
2017-09-26T04:25:35.657Z,1014.71
2017-09-26T04:26:35.654Z,1014.70
2017-09-26T04:27:38.347Z,1014.72
2017-09-26T04:28:35.645Z,1014.73
2017-09-26T04:29:35.643Z,1014.70
2017-09-26T04:30:37.347Z,1014.73
2017-09-26T04:31:35.635Z,1014.70
2017-09-26T04:32:35.630Z,1014.72
2017-09-26T04:33:35.627Z,1014.74
2017-09-26T04:34:35.625Z,1014.70
2017-09-26T04:35:35.619Z,1014.72
2017-09-26T04:36:35.622Z,1014.71
2017-09-26T04:37:35.613Z,1014.74
2017-09-26T04:38:35.610Z,1014.73
2017-09-26T04:39:35.606Z,1014.71
2017-09-26T04:40:37.351Z,1014.73
2017-09-26T04:41:35.598Z,1014.73
2017-09-26T04:42:35.596Z,1014.73
2017-09-26T04:43:35.591Z,1014.76
2017-09-26T04:44:35.588Z,1014.76
2017-09-26T04:45:37.353Z,1014.77
2017-09-26T04:46:37.356Z,1014.79
2017-09-26T04:47:36.578Z,1014.78
2017-09-26T04:48:37.353Z,1014.78
2017-09-26T04:49:35.569Z,1014.77
2017-09-26T04:50:37.356Z,1014.77
2017-09-26T04:51:37.355Z,1014.78
2017-09-26T04:52:37.356Z,1014.79
2017-09-26T04:53:35.553Z,1014.79
2017-09-26T04:54:35.555Z,1014.78
2017-09-26T04:55:35.548Z,1014.78
2017-09-26T04:56:35.552Z,1014.79
2017-09-26T04:57:37.359Z,1014.80
2017-09-26T04:58:35.538Z,1014.80
2017-09-26T04:59:37.359Z,1014.83
2017-09-26T05:00:38.359Z,1014.81
2017-09-26T05:01:35.528Z,1014.79
2017-09-26T05:02:35.523Z,1014.84
2017-09-26T05:03:35.519Z,1014.85
2017-09-26T05:04:35.514Z,1014.87
2017-09-26T05:05:35.513Z,1014.88
2017-09-26T05:06:35.519Z,1014.86
2017-09-26T05:07:37.363Z,1014.89
2017-09-26T05:08:37.361Z,1014.83
2017-09-26T05:09:35.499Z,1014.90
2017-09-26T05:10:35.494Z,1014.88
2017-09-26T05:11:35.492Z,1014.89
2017-09-26T05:12:35.487Z,1014.91
2017-09-26T05:13:35.482Z,1014.92
2017-09-26T05:14:35.480Z,1014.93
2017-09-26T05:15:35.477Z,1014.94
2017-09-26T05:16:35.472Z,1014.92
2017-09-26T05:17:35.477Z,1014.96
2017-09-26T05:18:35.470Z,1014.98
2017-09-26T05:19:35.459Z,1015.00
2017-09-26T05:20:35.457Z,1014.97
2017-09-26T05:21:37.367Z,1014.97
2017-09-26T05:22:35.451Z,1014.96
2017-09-26T05:23:35.448Z,1014.99
2017-09-26T05:24:35.460Z,1014.97
2017-09-26T05:25:35.439Z,1014.98
2017-09-26T05:26:35.437Z,1014.96
2017-09-26T05:27:37.368Z,1014.96
2017-09-26T05:28:35.463Z,1014.97
2017-09-26T05:29:35.425Z,1015.01
2017-09-26T05:30:37.369Z,1014.97
2017-09-26T05:31:35.419Z,1014.96
2017-09-26T05:32:35.415Z,1014.94
2017-09-26T05:33:37.370Z,1014.98
2017-09-26T05:34:37.371Z,1015.01
2017-09-26T05:35:35.403Z,1015.00
2017-09-26T05:36:37.372Z,1015.01
2017-09-26T05:37:35.402Z,1015.04
2017-09-26T05:38:35.397Z,1015.06
2017-09-26T05:39:35.390Z,1015.06
2017-09-26T05:40:35.385Z,1015.03
2017-09-26T05:41:35.381Z,1015.07
2017-09-26T05:42:35.378Z,1015.07
2017-09-26T05:43:36.884Z,1015.05
2017-09-26T05:44:35.376Z,1015.05
2017-09-26T05:45:35.366Z,1015.04
2017-09-26T05:46:36.876Z,1015.07
2017-09-26T05:47:36.877Z,1015.09
2017-09-26T05:48:35.357Z,1015.09
2017-09-26T05:49:35.354Z,1015.10
2017-09-26T05:50:35.349Z,1015.11
2017-09-26T05:51:35.344Z,1015.10
2017-09-26T05:52:35.342Z,1015.11
2017-09-26T05:53:35.338Z,1015.09
2017-09-26T05:54:35.334Z,1015.15
2017-09-26T05:55:36.879Z,1015.14
2017-09-26T05:56:36.880Z,1015.12
2017-09-26T05:57:35.322Z,1015.12
2017-09-26T05:58:35.319Z,1015.15
2017-09-26T05:59:35.315Z,1015.16
2017-09-26T06:00:35.313Z,1015.12
2017-09-26T06:01:35.308Z,1015.14
2017-09-26T06:02:35.307Z,1015.11
2017-09-26T06:03:36.882Z,1015.15
2017-09-26T06:04:36.882Z,1015.14
2017-09-26T06:05:37.882Z,1015.12
2017-09-26T06:06:35.290Z,1015.13
2017-09-26T06:07:35.287Z,1015.12
2017-09-26T06:08:35.283Z,1015.12
2017-09-26T06:09:35.278Z,1015.13
2017-09-26T06:10:35.279Z,1015.13
2017-09-26T06:11:35.272Z,1015.12
2017-09-26T06:12:36.886Z,1015.14
2017-09-26T06:13:35.265Z,1015.16
2017-09-26T06:14:35.267Z,1015.18
2017-09-26T06:15:35.258Z,1015.15
2017-09-26T06:16:36.886Z,1015.15
2017-09-26T06:17:35.254Z,1015.15
2017-09-26T06:18:35.251Z,1015.17
2017-09-26T06:19:35.241Z,1015.18
2017-09-26T06:20:36.236Z,1015.18
2017-09-26T06:21:35.236Z,1015.15
2017-09-26T06:22:35.232Z,1015.19
2017-09-26T06:23:35.230Z,1015.21
2017-09-26T06:24:35.224Z,1015.22
2017-09-26T06:25:35.222Z,1015.24
2017-09-26T06:26:35.216Z,1015.23
2017-09-26T06:27:35.211Z,1015.25
2017-09-26T06:28:35.209Z,1015.26
2017-09-26T06:29:36.891Z,1015.30
2017-09-26T06:30:35.202Z,1015.32
2017-09-26T06:31:35.198Z,1015.38
2017-09-26T06:32:35.196Z,1015.39
2017-09-26T06:33:35.191Z,1015.37
2017-09-26T06:34:35.189Z,1015.37
2017-09-26T06:35:35.182Z,1015.35
2017-09-26T06:36:35.185Z,1015.34
2017-09-26T06:37:35.176Z,1015.34
2017-09-26T06:38:35.187Z,1015.35
2017-09-26T06:39:35.175Z,1015.35
2017-09-26T06:40:35.166Z,1015.34
2017-09-26T06:41:35.163Z,1015.38
2017-09-26T06:42:35.159Z,1015.39
2017-09-26T06:43:35.155Z,1015.41
2017-09-26T06:44:35.150Z,1015.40
2017-09-26T06:45:36.897Z,1015.44
2017-09-26T06:46:35.144Z,1015.49
2017-09-26T06:47:35.139Z,1015.44
2017-09-26T06:48:35.140Z,1015.47
2017-09-26T06:49:36.898Z,1015.46
2017-09-26T06:50:35.129Z,1015.51
2017-09-26T06:51:35.124Z,1015.51
2017-09-26T06:52:35.120Z,1015.53
2017-09-26T06:53:35.119Z,1015.56
2017-09-26T06:54:36.918Z,1015.55
2017-09-26T06:55:35.109Z,1015.55
2017-09-26T06:56:35.106Z,1015.53
2017-09-26T06:57:35.100Z,1015.55
2017-09-26T06:58:35.105Z,1015.56
2017-09-26T06:59:35.096Z,1015.55
2017-09-26T07:00:35.093Z,1015.56
2017-09-26T07:01:35.087Z,1015.60
2017-09-26T07:02:35.085Z,1015.59
2017-09-26T07:03:35.079Z,1015.57
2017-09-26T07:04:36.904Z,1015.62
2017-09-26T07:05:36.907Z,1015.60
2017-09-26T07:06:35.069Z,1015.64
2017-09-26T07:07:35.064Z,1015.63
2017-09-26T07:08:35.065Z,1015.62
2017-09-26T07:09:35.057Z,1015.63
2017-09-26T07:10:35.053Z,1015.63
2017-09-26T07:11:35.051Z,1015.65
2017-09-26T07:12:35.045Z,1015.63
2017-09-26T07:13:35.041Z,1015.65
2017-09-26T07:14:35.039Z,1015.65
2017-09-26T07:15:35.039Z,1015.62
2017-09-26T07:16:35.031Z,1015.65
2017-09-26T07:17:35.026Z,1015.63
2017-09-26T07:18:36.909Z,1015.58
2017-09-26T07:19:36.911Z,1015.56
2017-09-26T07:20:36.920Z,1015.62
2017-09-26T07:21:35.012Z,1015.61
2017-09-26T07:22:35.015Z,1015.61
2017-09-26T07:23:35.005Z,1015.62
2017-09-26T07:24:34.999Z,1015.64
2017-09-26T07:25:34.994Z,1015.65
2017-09-26T07:26:34.994Z,1015.65
2017-09-26T07:27:36.914Z,1015.64
2017-09-26T07:28:34.986Z,1015.65
2017-09-26T07:29:34.981Z,1015.67
2017-09-26T07:30:36.915Z,1015.66
2017-09-26T07:31:36.913Z,1015.65
2017-09-26T07:32:36.913Z,1015.64
2017-09-26T07:33:34.968Z,1015.65
2017-09-26T07:34:34.964Z,1015.68
2017-09-26T07:35:34.960Z,1015.65
2017-09-26T07:36:34.960Z,1015.71
2017-09-26T07:37:36.916Z,1015.70
2017-09-26T07:38:34.949Z,1015.71
2017-09-26T07:39:34.944Z,1015.77
2017-09-26T07:40:35.937Z,1015.72
2017-09-26T07:41:34.938Z,1015.72
2017-09-26T07:42:36.917Z,1015.76
2017-09-26T07:43:34.932Z,1015.75
2017-09-26T07:44:34.924Z,1015.79
2017-09-26T07:45:34.924Z,1015.75
2017-09-26T07:46:36.425Z,1015.77
2017-09-26T07:47:34.933Z,1015.78
2017-09-26T07:48:34.955Z,1015.77
2017-09-26T07:49:34.939Z,1015.78
2017-09-26T07:50:34.905Z,1015.79
2017-09-26T07:51:34.904Z,1015.75
2017-09-26T07:52:36.421Z,1015.78
2017-09-26T07:53:38.439Z,1015.76
2017-09-26T07:54:34.887Z,1015.79
2017-09-26T07:55:34.887Z,1015.77
2017-09-26T07:56:35.428Z,1015.79
2017-09-26T07:57:34.883Z,1015.78
2017-09-26T07:58:34.974Z,1015.78
2017-09-26T07:59:34.882Z,1015.78
2017-09-26T08:00:34.927Z,1015.80
2017-09-26T08:01:36.424Z,1015.79
2017-09-26T08:02:36.425Z,1015.80
2017-09-26T08:03:36.427Z,1015.79
2017-09-26T08:04:34.848Z,1015.80
2017-09-26T08:05:34.846Z,1015.74
2017-09-26T08:06:34.845Z,1015.79
2017-09-26T08:07:34.839Z,1015.79
2017-09-26T08:08:34.837Z,1015.77
2017-09-26T08:09:34.840Z,1015.79
2017-09-26T08:10:36.434Z,1015.82
2017-09-26T08:11:34.823Z,1015.79
2017-09-26T08:12:34.823Z,1015.80
2017-09-26T08:13:34.834Z,1015.82
2017-09-26T08:14:34.819Z,1015.81
2017-09-26T08:15:36.429Z,1015.83
2017-09-26T08:16:34.804Z,1015.83
2017-09-26T08:17:34.803Z,1015.84
2017-09-26T08:18:34.800Z,1015.85
2017-09-26T08:19:34.793Z,1015.84
2017-09-26T08:20:36.432Z,1015.88
2017-09-26T08:21:36.432Z,1015.82
2017-09-26T08:22:34.783Z,1015.87
2017-09-26T08:23:34.789Z,1015.83
2017-09-26T08:24:34.775Z,1015.85
2017-09-26T08:25:34.772Z,1015.87
2017-09-26T08:26:34.776Z,1015.86
2017-09-26T08:27:34.763Z,1015.85
2017-09-26T08:28:34.761Z,1015.88
2017-09-26T08:29:36.435Z,1015.90
2017-09-26T08:30:36.435Z,1015.89
2017-09-26T08:31:36.434Z,1015.91
2017-09-26T08:32:34.746Z,1015.96
2017-09-26T08:33:34.742Z,1015.94
2017-09-26T08:34:34.739Z,1015.91
2017-09-26T08:35:34.733Z,1015.90
2017-09-26T08:36:34.731Z,1015.93
2017-09-26T08:37:34.729Z,1015.92
2017-09-26T08:38:34.724Z,1015.94
2017-09-26T08:39:34.721Z,1015.90
2017-09-26T08:40:36.440Z,1015.90
2017-09-26T08:41:36.439Z,1015.92
2017-09-26T08:42:34.712Z,1015.91
2017-09-26T08:43:34.710Z,1015.91
2017-09-26T08:44:34.705Z,1015.90
2017-09-26T08:45:34.700Z,1015.90
2017-09-26T08:46:34.700Z,1015.93
2017-09-26T08:47:36.442Z,1015.92
2017-09-26T08:48:36.441Z,1015.91
2017-09-26T08:49:36.446Z,1015.87
2017-09-26T08:50:36.446Z,1015.91
2017-09-26T08:51:34.675Z,1015.91
2017-09-26T08:52:34.672Z,1015.88
2017-09-26T08:53:34.667Z,1015.91
2017-09-26T08:54:34.665Z,1015.87
2017-09-26T08:55:34.660Z,1015.91
2017-09-26T08:56:34.657Z,1015.94
2017-09-26T08:57:34.660Z,1015.87
2017-09-26T08:58:36.445Z,1015.90
2017-09-26T08:59:34.645Z,1015.90
2017-09-26T09:00:34.641Z,1015.87
2017-09-26T09:01:36.449Z,1015.90
2017-09-26T09:02:34.634Z,1015.89
2017-09-26T09:03:34.635Z,1015.89
2017-09-26T09:04:36.447Z,1015.87
2017-09-26T09:05:34.627Z,1015.88
2017-09-26T09:06:34.620Z,1015.87
2017-09-26T09:07:36.464Z,1015.88
2017-09-26T09:08:36.449Z,1015.89
2017-09-26T09:09:36.453Z,1015.88
2017-09-26T09:10:35.600Z,1015.91
2017-09-26T09:11:34.602Z,1015.87
2017-09-26T09:12:34.597Z,1015.85
2017-09-26T09:13:34.594Z,1015.86
2017-09-26T09:14:34.593Z,1015.88
2017-09-26T09:15:34.588Z,1015.90
2017-09-26T09:16:37.452Z,1015.83
2017-09-26T09:17:36.452Z,1015.83
2017-09-26T09:18:36.452Z,1015.86
2017-09-26T09:19:37.330Z,1015.86
2017-09-26T09:20:39.415Z,1015.85
2017-09-26T09:21:37.536Z,1015.85
2017-09-26T09:22:38.381Z,1015.85
2017-09-26T09:23:38.788Z,1015.84
2017-09-26T09:24:39.046Z,1015.86
2017-09-26T09:25:39.456Z,1015.87
2017-09-26T09:26:39.031Z,1015.86
2017-09-26T09:27:34.544Z,1015.89
2017-09-26T09:28:37.455Z,1015.91
2017-09-26T09:29:37.456Z,1015.89
2017-09-26T09:30:36.458Z,1015.89
2017-09-26T09:31:34.529Z,1015.89
2017-09-26T09:32:34.527Z,1015.85
2017-09-26T09:33:34.520Z,1015.84
2017-09-26T09:34:34.517Z,1015.88
2017-09-26T09:35:36.459Z,1015.86
2017-09-26T09:36:34.510Z,1015.89
2017-09-26T09:37:34.510Z,1015.88
2017-09-26T09:38:36.464Z,1015.89
2017-09-26T09:39:37.461Z,1015.91
2017-09-26T09:40:36.459Z,1015.92
2017-09-26T09:41:34.492Z,1015.91
2017-09-26T09:42:34.488Z,1015.90
2017-09-26T09:43:37.460Z,1015.93
2017-09-26T09:44:34.483Z,1015.92
2017-09-26T09:45:34.477Z,1015.92
2017-09-26T09:46:34.475Z,1015.96
2017-09-26T09:47:34.473Z,1015.95
2017-09-26T09:48:35.463Z,1015.95
2017-09-26T09:49:36.963Z,1015.96
2017-09-26T09:50:34.460Z,1015.96
2017-09-26T09:51:34.456Z,1015.98
2017-09-26T09:52:34.457Z,1015.96
2017-09-26T09:53:34.449Z,1016.01
2017-09-26T09:54:35.967Z,1015.95
2017-09-26T09:55:34.479Z,1015.90
2017-09-26T09:56:34.446Z,1015.94
2017-09-26T09:57:35.966Z,1015.94
2017-09-26T09:58:36.967Z,1015.95
2017-09-26T09:59:35.966Z,1015.91
2017-09-26T10:00:34.423Z,1015.92
2017-09-26T10:01:34.424Z,1015.93
2017-09-26T10:02:34.419Z,1015.92
2017-09-26T10:03:35.970Z,1015.94
2017-09-26T10:04:35.969Z,1015.93
2017-09-26T10:05:34.406Z,1015.95
2017-09-26T10:06:34.403Z,1015.95
2017-09-26T10:07:34.404Z,1015.88
2017-09-26T10:08:35.974Z,1015.88
2017-09-26T10:09:35.972Z,1015.85
2017-09-26T10:10:34.390Z,1015.88
2017-09-26T10:11:34.387Z,1015.83
2017-09-26T10:12:34.383Z,1015.85
2017-09-26T10:13:34.380Z,1015.86
2017-09-26T10:14:35.985Z,1015.85
2017-09-26T10:15:35.974Z,1015.83
2017-09-26T10:16:35.973Z,1015.85
2017-09-26T10:17:35.974Z,1015.89
2017-09-26T10:18:34.370Z,1015.90
2017-09-26T10:19:34.355Z,1015.91
2017-09-26T10:20:34.353Z,1015.93
2017-09-26T10:21:34.409Z,1015.92
2017-09-26T10:22:34.379Z,1015.89
2017-09-26T10:23:34.359Z,1015.93
2017-09-26T10:24:34.342Z,1015.88
2017-09-26T10:25:34.338Z,1015.89
2017-09-26T10:26:34.341Z,1015.87
2017-09-26T10:27:34.329Z,1015.87
2017-09-26T10:28:34.327Z,1015.87
2017-09-26T10:29:34.325Z,1015.89
2017-09-26T10:30:34.323Z,1015.91
2017-09-26T10:31:34.323Z,1015.88
2017-09-26T10:32:34.338Z,1015.90
2017-09-26T10:33:34.330Z,1015.94
2017-09-26T10:34:34.307Z,1015.91
2017-09-26T10:35:34.303Z,1015.94
2017-09-26T10:36:34.301Z,1015.91
2017-09-26T10:37:35.982Z,1015.94
2017-09-26T10:38:34.298Z,1015.95
2017-09-26T10:39:34.289Z,1015.94
2017-09-26T10:40:34.284Z,1015.93
2017-09-26T10:41:34.282Z,1015.93
2017-09-26T10:42:34.282Z,1015.94
2017-09-26T10:43:34.277Z,1015.89
2017-09-26T10:44:34.277Z,1015.92
2017-09-26T10:45:34.268Z,1015.92
2017-09-26T10:46:34.264Z,1015.89
2017-09-26T10:47:34.268Z,1015.91
2017-09-26T10:48:34.264Z,1015.95
2017-09-26T10:49:34.256Z,1015.92
2017-09-26T10:50:34.267Z,1015.88
2017-09-26T10:51:34.262Z,1015.91
2017-09-26T10:52:34.248Z,1015.86
2017-09-26T10:53:34.248Z,1015.90
2017-09-26T10:54:34.240Z,1015.89
2017-09-26T10:55:34.237Z,1015.91
2017-09-26T10:56:34.234Z,1015.91
2017-09-26T10:57:35.989Z,1015.90
2017-09-26T10:58:35.989Z,1015.92
2017-09-26T10:59:36.031Z,1015.89
2017-09-26T11:00:34.220Z,1015.87
2017-09-26T11:01:34.218Z,1015.89
2017-09-26T11:02:35.994Z,1015.96
2017-09-26T11:03:34.242Z,1015.92
2017-09-26T11:04:34.248Z,1015.91
2017-09-26T11:05:34.252Z,1015.91
2017-09-26T11:06:34.251Z,1015.91
2017-09-26T11:07:34.247Z,1015.91
2017-09-26T11:08:34.222Z,1015.89
2017-09-26T11:09:35.993Z,1015.92
2017-09-26T11:10:34.188Z,1015.92
2017-09-26T11:11:34.213Z,1015.92
2017-09-26T11:12:34.197Z,1015.88
2017-09-26T11:13:35.995Z,1015.90
2017-09-26T11:14:34.208Z,1015.90
2017-09-26T11:15:34.180Z,1015.90
2017-09-26T11:16:34.193Z,1015.85
2017-09-26T11:17:34.176Z,1015.90
2017-09-26T11:18:34.185Z,1015.89
2017-09-26T11:19:36.052Z,1015.89
2017-09-26T11:20:34.157Z,1015.88
2017-09-26T11:21:34.152Z,1015.88
2017-09-26T11:22:34.149Z,1015.88
2017-09-26T11:23:34.148Z,1015.87
2017-09-26T11:24:34.171Z,1015.91
2017-09-26T11:25:34.159Z,1015.86
2017-09-26T11:26:34.152Z,1015.91
2017-09-26T11:27:34.136Z,1015.88
2017-09-26T11:28:36.009Z,1015.90
2017-09-26T11:29:36.361Z,1015.86
2017-09-26T11:30:34.126Z,1015.90
2017-09-26T11:31:34.126Z,1015.95
2017-09-26T11:32:34.118Z,1015.92
2017-09-26T11:33:34.116Z,1015.96
2017-09-26T11:34:34.112Z,1015.92
2017-09-26T11:35:34.110Z,1015.94
2017-09-26T11:36:34.107Z,1015.90
2017-09-26T11:37:34.105Z,1015.93
2017-09-26T11:38:34.102Z,1015.91
2017-09-26T11:39:34.098Z,1015.92
2017-09-26T11:40:34.094Z,1015.91
2017-09-26T11:41:36.099Z,1015.95
2017-09-26T11:42:37.700Z,1015.94
2017-09-26T11:43:35.290Z,1015.95
2017-09-26T11:44:36.169Z,1015.96
2017-09-26T11:45:34.125Z,1015.94
2017-09-26T11:46:34.078Z,1015.95
2017-09-26T11:47:34.073Z,1015.97
2017-09-26T11:48:36.010Z,1015.96
2017-09-26T11:49:36.009Z,1015.91
2017-09-26T11:50:36.010Z,1015.93
2017-09-26T11:51:34.062Z,1015.96
2017-09-26T11:52:34.058Z,1015.95
2017-09-26T11:53:34.056Z,1015.91
2017-09-26T11:54:34.052Z,1015.89
2017-09-26T11:55:34.050Z,1015.88
2017-09-26T11:56:34.047Z,1015.90
2017-09-26T11:57:34.043Z,1015.88
2017-09-26T11:58:34.043Z,1015.86
2017-09-26T11:59:37.012Z,1015.86
2017-09-26T12:00:36.018Z,1015.88
2017-09-26T12:01:34.035Z,1015.89
2017-09-26T12:02:36.015Z,1015.85
2017-09-26T12:03:36.016Z,1015.90
2017-09-26T12:04:34.025Z,1015.86
2017-09-26T12:05:34.021Z,1015.87